Terminal Aerodrome Forecast
Issued by NWS Huntsville, AL

Current Version | Previous Version | Text Only | Print | Product List | Glossary On
Versions: 1 2 3 4 5 6 7 8 9 10 11 12 13 14 15 16
000
FTUS44 KHUN 250520
TAFHSV
TAF
KHSV 250520Z 2506/2606 18013G20KT P6SM VCTS BKN040CB
     FM250800 20012G22KT P6SM VCSH OVC030
      TEMPO 2510/2512 OVC020
     FM251500 28013KT P6SM FEW020
     FM251800 31012KT P6SM SKC
     FM260100 VRB04KT P6SM SKC=

USA.gov is the U.S. government's official web portal to all federal, state and local government web resources and services.